sensor_id;sensor_type;location;lat;lon;timestamp;P1;durP1;ratioP1;P2;durP2;ratioP2
20026;SDS011;10174;42.688;23.344;2023-05-02T00:01:05;14.50;;;6.45;;
20026;SDS011;10174;42.688;23.344;2023-05-02T00:03:31;11.95;;;6.57;;
20026;SDS011;10174;42.688;23.344;2023-05-02T00:05:57;9.63;;;6.65;;
20026;SDS011;10174;42.688;23.344;2023-05-02T00:08:24;10.23;;;6.80;;
20026;SDS011;10174;42.688;23.344;2023-05-02T00:10:49;10.23;;;6.32;;
20026;SDS011;10174;42.688;23.344;2023-05-02T00:13:15;11.77;;;6.60;;
20026;SDS011;10174;42.688;23.344;2023-05-02T00:15:40;12.05;;;6.88;;
20026;SDS011;10174;42.688;23.344;2023-05-02T00:18:06;11.10;;;6.68;;
20026;SDS011;10174;42.688;23.344;2023-05-02T00:20:31;12.75;;;6.72;;
20026;SDS011;10174;42.688;23.344;2023-05-02T00:22:57;11.15;;;7.07;;
20026;SDS011;10174;42.688;23.344;2023-05-02T00:25:22;8.98;;;6.50;;
20026;SDS011;10174;42.688;23.344;2023-05-02T00:27:47;8.98;;;6.38;;
20026;SDS011;10174;42.688;23.344;2023-05-02T00:30:15;12.38;;;6.53;;
20026;SDS011;10174;42.688;23.344;2023-05-02T00:32:41;7.78;;;5.53;;
20026;SDS011;10174;42.688;23.344;2023-05-02T00:35:07;10.18;;;6.50;;
20026;SDS011;10174;42.688;23.344;2023-05-02T00:37:33;9.07;;;6.45;;
20026;SDS011;10174;42.688;23.344;2023-05-02T00:39:58;11.93;;;6.90;;
20026;SDS011;10174;42.688;23.344;2023-05-02T00:42:24;15.32;;;6.65;;
20026;SDS011;10174;42.688;23.344;2023-05-02T00:44:49;12.23;;;6.55;;
20026;SDS011;10174;42.688;23.344;2023-05-02T00:47:15;12.93;;;7.13;;
20026;SDS011;10174;42.688;23.344;2023-05-02T00:49:40;13.07;;;6.72;;
20026;SDS011;10174;42.688;23.344;2023-05-02T00:52:06;14.80;;;7.25;;
20026;SDS011;10174;42.688;23.344;2023-05-02T00:54:32;12.20;;;6.85;;
20026;SDS011;10174;42.688;23.344;2023-05-02T00:56:57;11.27;;;7.20;;
20026;SDS011;10174;42.688;23.344;2023-05-02T00:59:23;12.43;;;6.28;;
20026;SDS011;10174;42.688;23.344;2023-05-02T01:07:18;11.73;;;7.20;;
20026;SDS011;10174;42.688;23.344;2023-05-02T01:13:10;10.02;;;6.90;;
20026;SDS011;10174;42.688;23.344;2023-05-02T01:15:38;11.32;;;6.95;;
20026;SDS011;10174;42.688;23.344;2023-05-02T01:18:07;11.02;;;7.13;;
20026;SDS011;10174;42.688;23.344;2023-05-02T01:20:35;11.15;;;7.30;;
20026;SDS011;10174;42.688;23.344;2023-05-02T01:23:05;13.07;;;7.40;;
20026;SDS011;10174;42.688;23.344;2023-05-02T01:28:41;17.35;;;8.38;;
20026;SDS011;10174;42.688;23.344;2023-05-02T01:31:07;12.82;;;7.82;;
20026;SDS011;10174;42.688;23.344;2023-05-02T01:33:33;17.35;;;7.75;;
20026;SDS011;10174;42.688;23.344;2023-05-02T01:35:59;10.73;;;7.18;;
20026;SDS011;10174;42.688;23.344;2023-05-02T01:38:26;11.32;;;7.25;;
20026;SDS011;10174;42.688;23.344;2023-05-02T01:40:52;15.75;;;7.45;;
20026;SDS011;10174;42.688;23.344;2023-05-02T01:43:20;13.10;;;7.18;;
20026;SDS011;10174;42.688;23.344;2023-05-02T01:45:49;9.43;;;7.05;;
20026;SDS011;10174;42.688;23.344;2023-05-02T01:48:18;10.65;;;7.43;;
20026;SDS011;10174;42.688;23.344;2023-05-02T01:50:45;9.55;;;7.15;;
20026;SDS011;10174;42.688;23.344;2023-05-02T01:53:11;13.10;;;7.72;;
20026;SDS011;10174;42.688;23.344;2023-05-02T01:55:40;9.45;;;7.60;;
20026;SDS011;10174;42.688;23.344;2023-05-02T01:58:08;10.65;;;7.72;;
20026;SDS011;10174;42.688;23.344;2023-05-02T02:00:33;9.52;;;7.30;;
20026;SDS011;10174;42.688;23.344;2023-05-02T02:03:00;9.88;;;7.30;;
20026;SDS011;10174;42.688;23.344;2023-05-02T02:05:28;10.75;;;7.20;;
20026;SDS011;10174;42.688;23.344;2023-05-02T02:07:54;10.93;;;6.97;;
20026;SDS011;10174;42.688;23.344;2023-05-02T02:10:19;11.32;;;7.68;;
20026;SDS011;10174;42.688;23.344;2023-05-02T02:12:51;15.35;;;7.38;;
20026;SDS011;10174;42.688;23.344;2023-05-02T02:15:19;11.13;;;7.55;;
20026;SDS011;10174;42.688;23.344;2023-05-02T02:17:50;10.93;;;7.50;;
20026;SDS011;10174;42.688;23.344;2023-05-02T02:20:21;11.75;;;8.30;;
20026;SDS011;10174;42.688;23.344;2023-05-02T02:22:47;10.05;;;7.60;;
20026;SDS011;10174;42.688;23.344;2023-05-02T02:25:14;10.27;;;7.93;;
20026;SDS011;10174;42.688;23.344;2023-05-02T02:27:41;14.02;;;8.50;;
20026;SDS011;10174;42.688;23.344;2023-05-02T02:30:07;15.50;;;8.60;;
20026;SDS011;10174;42.688;23.344;2023-05-02T02:32:33;15.15;;;7.70;;
20026;SDS011;10174;42.688;23.344;2023-05-02T02:34:59;10.98;;;8.18;;
20026;SDS011;10174;42.688;23.344;2023-05-02T02:37:28;12.45;;;8.23;;
20026;SDS011;10174;42.688;23.344;2023-05-02T02:40:02;13.43;;;7.82;;
20026;SDS011;10174;42.688;23.344;2023-05-02T02:42:45;13.20;;;7.78;;
20026;SDS011;10174;42.688;23.344;2023-05-02T02:48:16;10.93;;;8.02;;
20026;SDS011;10174;42.688;23.344;2023-05-02T02:53:46;15.48;;;8.38;;
20026;SDS011;10174;42.688;23.344;2023-05-02T02:56:26;13.85;;;8.80;;
20026;SDS011;10174;42.688;23.344;2023-05-02T02:58:59;14.88;;;8.32;;
20026;SDS011;10174;42.688;23.344;2023-05-02T03:01:29;17.00;;;9.48;;
20026;SDS011;10174;42.688;23.344;2023-05-02T03:03:56;13.38;;;8.30;;
20026;SDS011;10174;42.688;23.344;2023-05-02T03:06:22;16.83;;;10.05;;
20026;SDS011;10174;42.688;23.344;2023-05-02T03:08:48;12.73;;;8.80;;
20026;SDS011;10174;42.688;23.344;2023-05-02T03:11:14;14.23;;;8.68;;
20026;SDS011;10174;42.688;23.344;2023-05-02T03:13:40;13.90;;;8.63;;
20026;SDS011;10174;42.688;23.344;2023-05-02T03:18:55;13.57;;;8.95;;
20026;SDS011;10174;42.688;23.344;2023-05-02T03:21:21;17.40;;;9.55;;
20026;SDS011;10174;42.688;23.344;2023-05-02T03:23:46;18.25;;;9.63;;
20026;SDS011;10174;42.688;23.344;2023-05-02T03:26:12;22.02;;;13.32;;
20026;SDS011;10174;42.688;23.344;2023-05-02T03:28:37;15.38;;;10.30;;
20026;SDS011;10174;42.688;23.344;2023-05-02T03:31:03;26.63;;;10.75;;
20026;SDS011;10174;42.688;23.344;2023-05-02T03:33:28;15.27;;;8.95;;
20026;SDS011;10174;42.688;23.344;2023-05-02T03:35:53;15.57;;;9.70;;
20026;SDS011;10174;42.688;23.344;2023-05-02T03:38:19;13.43;;;9.23;;
20026;SDS011;10174;42.688;23.344;2023-05-02T03:40:44;17.60;;;9.73;;
20026;SDS011;10174;42.688;23.344;2023-05-02T03:43:10;14.85;;;9.68;;
20026;SDS011;10174;42.688;23.344;2023-05-02T03:45:35;14.10;;;9.73;;
20026;SDS011;10174;42.688;23.344;2023-05-02T03:48:01;19.05;;;11.48;;
20026;SDS011;10174;42.688;23.344;2023-05-02T03:50:26;22.60;;;10.27;;
20026;SDS011;10174;42.688;23.344;2023-05-02T03:52:52;22.98;;;10.38;;
20026;SDS011;10174;42.688;23.344;2023-05-02T03:55:18;19.90;;;10.10;;
20026;SDS011;10174;42.688;23.344;2023-05-02T03:57:43;18.40;;;10.57;;
20026;SDS011;10174;42.688;23.344;2023-05-02T04:00:09;15.80;;;9.60;;
20026;SDS011;10174;42.688;23.344;2023-05-02T04:02:35;20.38;;;8.85;;
20026;SDS011;10174;42.688;23.344;2023-05-02T04:05:00;13.15;;;9.80;;
20026;SDS011;10174;42.688;23.344;2023-05-02T04:07:25;15.73;;;9.70;;
20026;SDS011;10174;42.688;23.344;2023-05-02T04:09:51;15.43;;;9.55;;
20026;SDS011;10174;42.688;23.344;2023-05-02T04:12:16;13.38;;;9.07;;
20026;SDS011;10174;42.688;23.344;2023-05-02T04:14:42;15.65;;;9.82;;
20026;SDS011;10174;42.688;23.344;2023-05-02T04:17:07;14.80;;;9.38;;
20026;SDS011;10174;42.688;23.344;2023-05-02T04:19:33;14.10;;;8.90;;
20026;SDS011;10174;42.688;23.344;2023-05-02T04:21:59;17.25;;;8.90;;
20026;SDS011;10174;42.688;23.344;2023-05-02T04:24:24;13.10;;;8.38;;
20026;SDS011;10174;42.688;23.344;2023-05-02T04:26:50;14.23;;;8.85;;
20026;SDS011;10174;42.688;23.344;2023-05-02T04:29:15;15.88;;;9.20;;
20026;SDS011;10174;42.688;23.344;2023-05-02T04:31:41;20.50;;;8.77;;
20026;SDS011;10174;42.688;23.344;2023-05-02T04:34:06;22.83;;;10.90;;
20026;SDS011;10174;42.688;23.344;2023-05-02T04:36:32;24.67;;;12.20;;
20026;SDS011;10174;42.688;23.344;2023-05-02T04:38:58;17.25;;;9.48;;
20026;SDS011;10174;42.688;23.344;2023-05-02T04:41:24;20.58;;;10.23;;
20026;SDS011;10174;42.688;23.344;2023-05-02T04:43:49;16.70;;;8.70;;
20026;SDS011;10174;42.688;23.344;2023-05-02T04:46:15;15.25;;;9.65;;
20026;SDS011;10174;42.688;23.344;2023-05-02T04:48:42;15.80;;;9.20;;
20026;SDS011;10174;42.688;23.344;2023-05-02T04:51:08;13.95;;;8.43;;
20026;SDS011;10174;42.688;23.344;2023-05-02T04:53:34;16.67;;;9.27;;
20026;SDS011;10174;42.688;23.344;2023-05-02T04:56:00;18.38;;;9.07;;
20026;SDS011;10174;42.688;23.344;2023-05-02T04:58:25;20.95;;;8.43;;
20026;SDS011;10174;42.688;23.344;2023-05-02T05:00:51;13.77;;;8.77;;
20026;SDS011;10174;42.688;23.344;2023-05-02T05:03:16;19.05;;;9.15;;
20026;SDS011;10174;42.688;23.344;2023-05-02T05:05:41;16.00;;;9.30;;
20026;SDS011;10174;42.688;23.344;2023-05-02T05:08:07;14.48;;;8.30;;
20026;SDS011;10174;42.688;23.344;2023-05-02T05:10:32;18.42;;;7.93;;
20026;SDS011;10174;42.688;23.344;2023-05-02T05:12:58;16.45;;;8.50;;
20026;SDS011;10174;42.688;23.344;2023-05-02T05:15:24;11.80;;;7.68;;
20026;SDS011;10174;42.688;23.344;2023-05-02T05:17:50;13.98;;;7.57;;
20026;SDS011;10174;42.688;23.344;2023-05-02T05:20:15;16.52;;;8.20;;
20026;SDS011;10174;42.688;23.344;2023-05-02T05:22:41;23.65;;;8.52;;
20026;SDS011;10174;42.688;23.344;2023-05-02T05:25:07;18.73;;;7.40;;
20026;SDS011;10174;42.688;23.344;2023-05-02T05:27:33;23.05;;;8.45;;
20026;SDS011;10174;42.688;23.344;2023-05-02T05:29:59;15.75;;;7.07;;
20026;SDS011;10174;42.688;23.344;2023-05-02T05:32:25;17.38;;;9.02;;
20026;SDS011;10174;42.688;23.344;2023-05-02T05:34:51;16.35;;;7.32;;
20026;SDS011;10174;42.688;23.344;2023-05-02T05:37:18;18.20;;;7.25;;
20026;SDS011;10174;42.688;23.344;2023-05-02T05:39:43;14.02;;;7.07;;
20026;SDS011;10174;42.688;23.344;2023-05-02T05:42:09;12.90;;;6.60;;
20026;SDS011;10174;42.688;23.344;2023-05-02T05:44:34;19.33;;;7.38;;
20026;SDS011;10174;42.688;23.344;2023-05-02T05:47:00;17.65;;;6.57;;
20026;SDS011;10174;42.688;23.344;2023-05-02T05:49:26;19.50;;;6.82;;
20026;SDS011;10174;42.688;23.344;2023-05-02T05:51:51;13.68;;;6.93;;
20026;SDS011;10174;42.688;23.344;2023-05-02T05:54:17;15.73;;;7.63;;
20026;SDS011;10174;42.688;23.344;2023-05-02T05:56:42;27.90;;;7.20;;
20026;SDS011;10174;42.688;23.344;2023-05-02T05:59:08;14.15;;;7.53;;
20026;SDS011;10174;42.688;23.344;2023-05-02T06:01:33;32.15;;;10.73;;
20026;SDS011;10174;42.688;23.344;2023-05-02T06:03:59;17.13;;;6.43;;
20026;SDS011;10174;42.688;23.344;2023-05-02T06:06:26;12.90;;;6.78;;
20026;SDS011;10174;42.688;23.344;2023-05-02T06:08:53;17.30;;;7.00;;
20026;SDS011;10174;42.688;23.344;2023-05-02T06:11:18;16.80;;;6.35;;
20026;SDS011;10174;42.688;23.344;2023-05-02T06:13:44;12.43;;;6.00;;
20026;SDS011;10174;42.688;23.344;2023-05-02T06:16:09;12.02;;;6.40;;
20026;SDS011;10174;42.688;23.344;2023-05-02T06:18:35;14.02;;;6.38;;
20026;SDS011;10174;42.688;23.344;2023-05-02T06:21:04;13.23;;;6.88;;
20026;SDS011;10174;42.688;23.344;2023-05-02T06:23:30;13.13;;;6.57;;
20026;SDS011;10174;42.688;23.344;2023-05-02T06:26:00;14.25;;;6.25;;
20026;SDS011;10174;42.688;23.344;2023-05-02T06:28:27;12.07;;;6.07;;
20026;SDS011;10174;42.688;23.344;2023-05-02T06:31:03;23.15;;;8.00;;
20026;SDS011;10174;42.688;23.344;2023-05-02T06:33:29;12.18;;;5.95;;
20026;SDS011;10174;42.688;23.344;2023-05-02T06:35:55;10.43;;;6.03;;
20026;SDS011;10174;42.688;23.344;2023-05-02T06:38:21;17.83;;;5.75;;
20026;SDS011;10174;42.688;23.344;2023-05-02T06:40:48;16.63;;;5.80;;
20026;SDS011;10174;42.688;23.344;2023-05-02T06:43:14;9.60;;;5.10;;
20026;SDS011;10174;42.688;23.344;2023-05-02T06:45:39;13.02;;;5.63;;
20026;SDS011;10174;42.688;23.344;2023-05-02T06:48:06;10.18;;;5.90;;
20026;SDS011;10174;42.688;23.344;2023-05-02T06:50:32;11.70;;;5.80;;
20026;SDS011;10174;42.688;23.344;2023-05-02T06:52:58;8.77;;;5.70;;
20026;SDS011;10174;42.688;23.344;2023-05-02T06:55:24;10.07;;;5.35;;
20026;SDS011;10174;42.688;23.344;2023-05-02T06:57:49;14.18;;;4.85;;
20026;SDS011;10174;42.688;23.344;2023-05-02T07:00:16;31.98;;;15.45;;
20026;SDS011;10174;42.688;23.344;2023-05-02T07:02:43;22.25;;;8.38;;
20026;SDS011;10174;42.688;23.344;2023-05-02T07:05:09;15.68;;;5.95;;
20026;SDS011;10174;42.688;23.344;2023-05-02T07:07:35;9.75;;;4.72;;
20026;SDS011;10174;42.688;23.344;2023-05-02T07:10:00;15.43;;;5.00;;
20026;SDS011;10174;42.688;23.344;2023-05-02T07:12:26;10.32;;;4.40;;
20026;SDS011;10174;42.688;23.344;2023-05-02T07:14:51;8.80;;;4.43;;
20026;SDS011;10174;42.688;23.344;2023-05-02T07:17:16;12.57;;;4.80;;
20026;SDS011;10174;42.688;23.344;2023-05-02T07:19:42;8.60;;;4.55;;
20026;SDS011;10174;42.688;23.344;2023-05-02T07:22:08;25.33;;;5.25;;
20026;SDS011;10174;42.688;23.344;2023-05-02T07:24:33;7.63;;;4.43;;
20026;SDS011;10174;42.688;23.344;2023-05-02T07:26:58;12.77;;;4.50;;
20026;SDS011;10174;42.688;23.344;2023-05-02T07:29:24;10.15;;;4.15;;
20026;SDS011;10174;42.688;23.344;2023-05-02T07:31:50;12.65;;;4.35;;
20026;SDS011;10174;42.688;23.344;2023-05-02T07:34:16;13.90;;;4.68;;
20026;SDS011;10174;42.688;23.344;2023-05-02T07:36:41;11.38;;;3.85;;
20026;SDS011;10174;42.688;23.344;2023-05-02T07:39:06;11.05;;;4.63;;
20026;SDS011;10174;42.688;23.344;2023-05-02T07:41:32;11.63;;;4.60;;
20026;SDS011;10174;42.688;23.344;2023-05-02T07:43:57;12.68;;;4.47;;
20026;SDS011;10174;42.688;23.344;2023-05-02T07:46:23;12.80;;;3.90;;
20026;SDS011;10174;42.688;23.344;2023-05-02T07:48:48;18.65;;;4.40;;
20026;SDS011;10174;42.688;23.344;2023-05-02T07:51:15;8.73;;;4.15;;
20026;SDS011;10174;42.688;23.344;2023-05-02T07:53:44;6.85;;;4.10;;
20026;SDS011;10174;42.688;23.344;2023-05-02T07:56:09;12.18;;;3.90;;
20026;SDS011;10174;42.688;23.344;2023-05-02T07:58:36;13.95;;;4.20;;
20026;SDS011;10174;42.688;23.344;2023-05-02T08:01:02;13.10;;;4.57;;
20026;SDS011;10174;42.688;23.344;2023-05-02T08:03:28;48.25;;;6.40;;
20026;SDS011;10174;42.688;23.344;2023-05-02T08:05:54;14.18;;;5.10;;
20026;SDS011;10174;42.688;23.344;2023-05-02T08:08:19;8.85;;;4.80;;
20026;SDS011;10174;42.688;23.344;2023-05-02T08:10:45;16.48;;;4.72;;
20026;SDS011;10174;42.688;23.344;2023-05-02T08:13:10;21.55;;;6.65;;
20026;SDS011;10174;42.688;23.344;2023-05-02T08:15:36;14.05;;;6.88;;
20026;SDS011;10174;42.688;23.344;2023-05-02T08:18:02;18.08;;;7.05;;
20026;SDS011;10174;42.688;23.344;2023-05-02T08:20:27;16.70;;;5.63;;
20026;SDS011;10174;42.688;23.344;2023-05-02T08:22:53;15.35;;;6.13;;
20026;SDS011;10174;42.688;23.344;2023-05-02T08:25:18;13.30;;;8.65;;
20026;SDS011;10174;42.688;23.344;2023-05-02T08:27:44;14.70;;;4.63;;
20026;SDS011;10174;42.688;23.344;2023-05-02T08:30:09;12.35;;;5.88;;
20026;SDS011;10174;42.688;23.344;2023-05-02T08:32:35;13.90;;;5.00;;
20026;SDS011;10174;42.688;23.344;2023-05-02T08:35:01;11.98;;;4.53;;
20026;SDS011;10174;42.688;23.344;2023-05-02T08:37:27;18.40;;;6.05;;
20026;SDS011;10174;42.688;23.344;2023-05-02T08:39:52;15.30;;;5.07;;
20026;SDS011;10174;42.688;23.344;2023-05-02T08:42:18;14.82;;;6.35;;
20026;SDS011;10174;42.688;23.344;2023-05-02T08:44:45;8.35;;;4.00;;
20026;SDS011;10174;42.688;23.344;2023-05-02T08:47:12;9.73;;;3.80;;
20026;SDS011;10174;42.688;23.344;2023-05-02T08:49:39;8.82;;;3.75;;
20026;SDS011;10174;42.688;23.344;2023-05-02T08:52:05;6.22;;;2.95;;
20026;SDS011;10174;42.688;23.344;2023-05-02T08:54:35;13.30;;;3.10;;
20026;SDS011;10174;42.688;23.344;2023-05-02T08:57:02;10.43;;;3.30;;
20026;SDS011;10174;42.688;23.344;2023-05-02T08:59:28;5.68;;;3.10;;
20026;SDS011;10174;42.688;23.344;2023-05-02T09:01:56;6.15;;;2.97;;
20026;SDS011;10174;42.688;23.344;2023-05-02T09:04:30;6.95;;;2.78;;
20026;SDS011;10174;42.688;23.344;2023-05-02T09:06:59;10.48;;;4.28;;
20026;SDS011;10174;42.688;23.344;2023-05-02T09:09:25;6.75;;;3.15;;
20026;SDS011;10174;42.688;23.344;2023-05-02T09:11:51;5.45;;;3.22;;
20026;SDS011;10174;42.688;23.344;2023-05-02T09:14:17;11.02;;;4.68;;
20026;SDS011;10174;42.688;23.344;2023-05-02T09:16:43;10.98;;;4.20;;
20026;SDS011;10174;42.688;23.344;2023-05-02T09:19:08;13.18;;;3.63;;
20026;SDS011;10174;42.688;23.344;2023-05-02T09:21:38;11.90;;;3.08;;
20026;SDS011;10174;42.688;23.344;2023-05-02T09:24:15;13.25;;;2.78;;
20026;SDS011;10174;42.688;23.344;2023-05-02T09:26:42;6.15;;;2.35;;
20026;SDS011;10174;42.688;23.344;2023-05-02T09:29:08;4.85;;;2.88;;
20026;SDS011;10174;42.688;23.344;2023-05-02T09:31:34;4.90;;;2.60;;
20026;SDS011;10174;42.688;23.344;2023-05-02T09:34:09;6.60;;;2.63;;
20026;SDS011;10174;42.688;23.344;2023-05-02T09:36:42;12.95;;;3.70;;
20026;SDS011;10174;42.688;23.344;2023-05-02T09:39:13;4.53;;;2.53;;
20026;SDS011;10174;42.688;23.344;2023-05-02T09:41:43;3.83;;;2.60;;
20026;SDS011;10174;42.688;23.344;2023-05-02T09:44:11;9.80;;;3.13;;
20026;SDS011;10174;42.688;23.344;2023-05-02T09:46:38;7.78;;;3.17;;
20026;SDS011;10174;42.688;23.344;2023-05-02T09:49:08;9.57;;;3.67;;
20026;SDS011;10174;42.688;23.344;2023-05-02T09:51:38;13.18;;;4.28;;
20026;SDS011;10174;42.688;23.344;2023-05-02T09:54:04;6.25;;;2.83;;
20026;SDS011;10174;42.688;23.344;2023-05-02T09:56:29;5.85;;;3.00;;
20026;SDS011;10174;42.688;23.344;2023-05-02T09:59:11;10.18;;;2.85;;
20026;SDS011;10174;42.688;23.344;2023-05-02T10:01:40;3.22;;;2.30;;
20026;SDS011;10174;42.688;23.344;2023-05-02T10:04:08;9.63;;;2.63;;
20026;SDS011;10174;42.688;23.344;2023-05-02T10:06:40;8.20;;;2.80;;
20026;SDS011;10174;42.688;23.344;2023-05-02T10:09:09;7.32;;;2.83;;
20026;SDS011;10174;42.688;23.344;2023-05-02T10:11:40;6.65;;;2.60;;
20026;SDS011;10174;42.688;23.344;2023-05-02T10:14:08;8.80;;;2.53;;
20026;SDS011;10174;42.688;23.344;2023-05-02T10:16:35;6.38;;;2.42;;
20026;SDS011;10174;42.688;23.344;2023-05-02T10:19:06;4.60;;;2.60;;
20026;SDS011;10174;42.688;23.344;2023-05-02T10:21:34;16.65;;;3.17;;
20026;SDS011;10174;42.688;23.344;2023-05-02T10:24:00;5.43;;;2.47;;
20026;SDS011;10174;42.688;23.344;2023-05-02T10:26:28;6.35;;;2.28;;
20026;SDS011;10174;42.688;23.344;2023-05-02T10:28:56;3.35;;;1.90;;
20026;SDS011;10174;42.688;23.344;2023-05-02T10:31:23;5.88;;;2.65;;
20026;SDS011;10174;42.688;23.344;2023-05-02T10:33:49;5.70;;;2.30;;
20026;SDS011;10174;42.688;23.344;2023-05-02T10:36:19;10.43;;;2.58;;
20026;SDS011;10174;42.688;23.344;2023-05-02T10:38:46;7.25;;;2.65;;
20026;SDS011;10174;42.688;23.344;2023-05-02T10:41:13;9.68;;;2.80;;
20026;SDS011;10174;42.688;23.344;2023-05-02T10:43:46;6.70;;;2.17;;
20026;SDS011;10174;42.688;23.344;2023-05-02T10:51:28;7.32;;;3.75;;
20026;SDS011;10174;42.688;23.344;2023-05-02T10:54:11;6.18;;;3.00;;
20026;SDS011;10174;42.688;23.344;2023-05-02T10:59:49;8.52;;;2.33;;
20026;SDS011;10174;42.688;23.344;2023-05-02T11:05:06;5.28;;;2.33;;
20026;SDS011;10174;42.688;23.344;2023-05-02T11:07:35;5.38;;;2.85;;
20026;SDS011;10174;42.688;23.344;2023-05-02T11:12:42;6.10;;;2.20;;
20026;SDS011;10174;42.688;23.344;2023-05-02T11:18:06;8.23;;;2.30;;
20026;SDS011;10174;42.688;23.344;2023-05-02T11:20:51;8.13;;;2.83;;
20026;SDS011;10174;42.688;23.344;2023-05-02T11:23:20;8.15;;;2.95;;
20026;SDS011;10174;42.688;23.344;2023-05-02T11:25:50;12.45;;;2.40;;
20026;SDS011;10174;42.688;23.344;2023-05-02T11:30:58;6.00;;;3.13;;
20026;SDS011;10174;42.688;23.344;2023-05-02T11:33:24;11.75;;;3.10;;
20026;SDS011;10174;42.688;23.344;2023-05-02T11:35:52;21.90;;;3.28;;
20026;SDS011;10174;42.688;23.344;2023-05-02T11:38:18;6.68;;;2.58;;
20026;SDS011;10174;42.688;23.344;2023-05-02T11:40:51;7.68;;;3.00;;
20026;SDS011;10174;42.688;23.344;2023-05-02T11:43:18;4.90;;;2.72;;
20026;SDS011;10174;42.688;23.344;2023-05-02T11:45:49;3.65;;;2.67;;
20026;SDS011;10174;42.688;23.344;2023-05-02T11:48:15;17.05;;;4.40;;
20026;SDS011;10174;42.688;23.344;2023-05-02T11:50:45;29.05;;;3.35;;
20026;SDS011;10174;42.688;23.344;2023-05-02T11:53:19;24.95;;;4.90;;
20026;SDS011;10174;42.688;23.344;2023-05-02T11:55:56;9.52;;;3.20;;
20026;SDS011;10174;42.688;23.344;2023-05-02T11:58:27;6.25;;;3.63;;
20026;SDS011;10174;42.688;23.344;2023-05-02T12:00:53;8.93;;;2.15;;
20026;SDS011;10174;42.688;23.344;2023-05-02T12:05:50;13.48;;;2.85;;
20026;SDS011;10174;42.688;23.344;2023-05-02T12:08:17;5.70;;;2.97;;
20026;SDS011;10174;42.688;23.344;2023-05-02T12:10:44;11.88;;;3.22;;
20026;SDS011;10174;42.688;23.344;2023-05-02T12:13:10;9.63;;;2.70;;
20026;SDS011;10174;42.688;23.344;2023-05-02T12:15:35;4.20;;;2.40;;
20026;SDS011;10174;42.688;23.344;2023-05-02T12:18:01;3.53;;;2.17;;
20026;SDS011;10174;42.688;23.344;2023-05-02T12:20:27;14.38;;;2.80;;
20026;SDS011;10174;42.688;23.344;2023-05-02T12:22:52;6.60;;;2.15;;
20026;SDS011;10174;42.688;23.344;2023-05-02T12:25:18;5.57;;;2.45;;
20026;SDS011;10174;42.688;23.344;2023-05-02T12:27:57;6.47;;;2.40;;
20026;SDS011;10174;42.688;23.344;2023-05-02T12:30:27;6.75;;;2.60;;
20026;SDS011;10174;42.688;23.344;2023-05-02T12:32:56;7.85;;;2.65;;
20026;SDS011;10174;42.688;23.344;2023-05-02T12:35:23;4.15;;;2.50;;
20026;SDS011;10174;42.688;23.344;2023-05-02T12:37:48;7.30;;;2.35;;
20026;SDS011;10174;42.688;23.344;2023-05-02T12:40:14;8.00;;;3.25;;
20026;SDS011;10174;42.688;23.344;2023-05-02T12:42:41;4.97;;;2.35;;
20026;SDS011;10174;42.688;23.344;2023-05-02T12:45:15;5.38;;;2.65;;
20026;SDS011;10174;42.688;23.344;2023-05-02T12:47:44;3.40;;;2.33;;
20026;SDS011;10174;42.688;23.344;2023-05-02T12:50:12;6.35;;;2.38;;
20026;SDS011;10174;42.688;23.344;2023-05-02T12:55:23;8.10;;;2.38;;
20026;SDS011;10174;42.688;23.344;2023-05-02T12:57:49;16.33;;;2.83;;
20026;SDS011;10174;42.688;23.344;2023-05-02T13:00:15;5.22;;;1.95;;
20026;SDS011;10174;42.688;23.344;2023-05-02T13:02:42;8.35;;;2.97;;
20026;SDS011;10174;42.688;23.344;2023-05-02T13:05:14;8.70;;;2.63;;
20026;SDS011;10174;42.688;23.344;2023-05-02T13:07:40;7.22;;;2.47;;
20026;SDS011;10174;42.688;23.344;2023-05-02T13:10:06;8.23;;;2.63;;
20026;SDS011;10174;42.688;23.344;2023-05-02T13:12:32;9.05;;;2.50;;
20026;SDS011;10174;42.688;23.344;2023-05-02T13:15:01;7.78;;;2.38;;
20026;SDS011;10174;42.688;23.344;2023-05-02T13:17:27;5.10;;;2.47;;
20026;SDS011;10174;42.688;23.344;2023-05-02T13:19:53;8.70;;;2.67;;
20026;SDS011;10174;42.688;23.344;2023-05-02T13:22:18;6.70;;;2.30;;
20026;SDS011;10174;42.688;23.344;2023-05-02T13:24:44;8.13;;;2.92;;
20026;SDS011;10174;42.688;23.344;2023-05-02T13:27:10;6.85;;;2.80;;
20026;SDS011;10174;42.688;23.344;2023-05-02T13:29:36;3.88;;;2.42;;
20026;SDS011;10174;42.688;23.344;2023-05-02T13:32:01;6.68;;;2.58;;
20026;SDS011;10174;42.688;23.344;2023-05-02T13:34:26;7.07;;;2.05;;
20026;SDS011;10174;42.688;23.344;2023-05-02T13:36:52;12.13;;;2.97;;
20026;SDS011;10174;42.688;23.344;2023-05-02T13:39:17;7.30;;;3.00;;
20026;SDS011;10174;42.688;23.344;2023-05-02T13:41:43;5.88;;;2.55;;
20026;SDS011;10174;42.688;23.344;2023-05-02T13:44:08;6.20;;;2.55;;
20026;SDS011;10174;42.688;23.344;2023-05-02T13:46:34;5.35;;;2.50;;
20026;SDS011;10174;42.688;23.344;2023-05-02T13:49:02;5.93;;;2.28;;
20026;SDS011;10174;42.688;23.344;2023-05-02T13:51:33;11.27;;;3.25;;
20026;SDS011;10174;42.688;23.344;2023-05-02T13:53:59;6.55;;;1.83;;
20026;SDS011;10174;42.688;23.344;2023-05-02T13:56:25;4.80;;;2.40;;
20026;SDS011;10174;42.688;23.344;2023-05-02T13:58:50;11.48;;;2.20;;
20026;SDS011;10174;42.688;23.344;2023-05-02T14:01:16;5.07;;;2.08;;
20026;SDS011;10174;42.688;23.344;2023-05-02T14:03:41;6.13;;;2.55;;
20026;SDS011;10174;42.688;23.344;2023-05-02T14:06:07;8.00;;;2.22;;
20026;SDS011;10174;42.688;23.344;2023-05-02T14:08:33;7.72;;;2.42;;
20026;SDS011;10174;42.688;23.344;2023-05-02T14:10:58;5.40;;;2.80;;
20026;SDS011;10174;42.688;23.344;2023-05-02T14:13:23;6.47;;;2.63;;
20026;SDS011;10174;42.688;23.344;2023-05-02T14:15:50;7.32;;;2.90;;
20026;SDS011;10174;42.688;23.344;2023-05-02T14:18:15;5.35;;;2.67;;
20026;SDS011;10174;42.688;23.344;2023-05-02T14:20:41;4.28;;;2.25;;
20026;SDS011;10174;42.688;23.344;2023-05-02T14:23:06;12.60;;;2.80;;
20026;SDS011;10174;42.688;23.344;2023-05-02T14:25:32;10.25;;;2.60;;
20026;SDS011;10174;42.688;23.344;2023-05-02T14:27:58;8.23;;;2.17;;
20026;SDS011;10174;42.688;23.344;2023-05-02T14:30:24;4.10;;;2.10;;
20026;SDS011;10174;42.688;23.344;2023-05-02T14:32:49;3.85;;;1.98;;
20026;SDS011;10174;42.688;23.344;2023-05-02T14:35:16;6.88;;;2.10;;
20026;SDS011;10174;42.688;23.344;2023-05-02T14:37:41;6.82;;;2.38;;
20026;SDS011;10174;42.688;23.344;2023-05-02T14:40:09;8.57;;;2.30;;
20026;SDS011;10174;42.688;23.344;2023-05-02T14:42:34;6.55;;;2.22;;
20026;SDS011;10174;42.688;23.344;2023-05-02T14:45:00;15.32;;;4.25;;
20026;SDS011;10174;42.688;23.344;2023-05-02T14:47:29;6.07;;;2.20;;
20026;SDS011;10174;42.688;23.344;2023-05-02T14:49:55;5.25;;;2.38;;
20026;SDS011;10174;42.688;23.344;2023-05-02T14:52:20;5.07;;;2.25;;
20026;SDS011;10174;42.688;23.344;2023-05-02T14:54:45;13.75;;;2.90;;
20026;SDS011;10174;42.688;23.344;2023-05-02T14:57:11;7.93;;;2.53;;
20026;SDS011;10174;42.688;23.344;2023-05-02T14:59:36;8.25;;;2.50;;
20026;SDS011;10174;42.688;23.344;2023-05-02T15:02:02;7.35;;;2.58;;
20026;SDS011;10174;42.688;23.344;2023-05-02T15:04:28;15.43;;;3.60;;
20026;SDS011;10174;42.688;23.344;2023-05-02T15:06:54;6.45;;;2.40;;
20026;SDS011;10174;42.688;23.344;2023-05-02T15:09:20;8.55;;;2.85;;